Buoy 43528

sailwx.info

Track history (hours):
 
Tides and Currents Weather Stations Pressure Air Temp Water Temp Dewpoint Dewpoint Depression Visibility Wind Speed Wind Dir Waves Ship Positions

Drifting buoy 43528

Last reported at 2015-May-06 05:00 UTC. Time now 2015-May-06 06:25 UTC.
Position N 13°54' W 166°39'.

Water temperature 27.2 ° C

Date/timePositionNaut miles runAvg speedWind from/ knotsBaromVisibWave heightAir tempDewpointWater temp
2015-May-06 05:00N 13°54' W 166°39'0 0.2 27.2
2015-May-06 04:00N 13°54' W 166°39'0 0.2 27.3
2015-May-06 02:00N 13°54' W 166°39'0 0.0 27.3
2015-May-06 01:00N 13°54' W 166°39'0 0.4 27.3
2015-May-06 00:00N 13°54' W 166°38'0 0.0 27.3
2015-May-05 21:00N 13°54' W 166°38'1 0.7 27.2
2015-May-05 20:00N 13°54' W 166°38'0 0.0 27.2
2015-May-05 19:00N 13°54' W 166°38'1 0.6 27.2
2015-May-05 17:00N 13°54' W 166°39'0 0.1 27.2
2015-May-05 16:00N 13°54' W 166°39'1 0.3 27.2
2015-May-05 14:00N 13°54' W 166°38'1 0.8 27.2
2015-May-05 13:00N 13°54' W 166°39'0 0.2 27.2
2015-May-05 12:00N 13°53' W 166°39'0 0.0 27.2
2015-May-05 08:00N 13°53' W 166°39'1 1.3 27.2
2015-May-05 07:00N 13°52' W 166°40'0 0.1 27.2
2015-May-05 05:00N 13°52' W 166°40'0 0.3 27.2
2015-May-05 04:00N 13°52' W 166°40'1 1.5 27.2
2015-May-05 03:00N 13°51' W 166°39'0 0.0 27.2
2015-May-05 02:00N 13°51' W 166°39'1 0.8 27.3
2015-May-05 01:00N 13°50' W 166°38'1 1.2 27.2
2015-May-05 00:00N 13°50' W 166°37'2 1.8 27.2
2015-May-04 23:00N 13°50' W 166°39'2 1.1 27.2
2015-May-04 21:00N 13°49' W 166°37'1 1.1 27.2
2015-May-04 20:00N 13°48' W 166°37'1 1.4 27.2
2015-May-04 19:00N 13°50' W 166°37'2 0.9 27.2
2015-May-04 17:00N 13°48' W 166°37'0 0.3 27.2
2015-May-04 16:00N 13°48' W 166°37'1 0.4 27.2
2015-May-04 13:00N 13°48' W 166°35'0 0.1 27.2
2015-May-04 09:00N 13°48' W 166°35'1 0.8 27.2
2015-May-04 08:00N 13°48' W 166°34'2 0.4 27.2
2015-May-04 04:00N 13°47' W 166°36'0 0.2 27.3
2015-May-04 03:00N 13°47' W 166°36'1 0.5 27.3
2015-May-04 00:00N 13°46' W 166°35'1 0.1 27.3
2015-May-03 16:00N 13°46' W 166°35'1 0.1 27.2
2015-May-03 08:00N 13°46' W 166°34'2 0.2 27.2
2015-May-02 19:00N 13°48' W 166°33'2 0.2 27.2
2015-May-02 09:00N 13°50' W 166°32'1 0.8 27.2
2015-May-02 08:00N 13°51' W 166°32'1 0.0 27.2
2015-May-01 21:00N 13°50' W 166°33'1 0.1 27.1
2015-May-01 09:00N 13°51' W 166°31'1 0.8 27.1
2015-May-01 08:00N 13°51' W 166°31'1 0.2 27.1
2015-May-01 05:00N 13°51' W 166°30'1 0.7 27.2
2015-May-01 04:00N 13°52' W 166°30'0 0.4 27.2
2015-May-01 03:00N 13°52' W 166°30'3 0.4 27.2
2015-Apr-30 19:00N 13°54' W 166°29'1 0.5 27.1
2015-Apr-30 17:00N 13°55' W 166°30'0 0.2 27.0
2015-Apr-30 15:00N 13°56' W 166°30'1 0.5 27.1
2015-Apr-30 12:00N 13°57' W 166°30'0 0.0 27.1
2015-Apr-30 11:00N 13°57' W 166°30'2 0.6 27.0
2015-Apr-30 08:00N 13°59' W 166°30'1 1.1 27.0
2015-Apr-30 07:00N 13°60' W 166°31'1 0.2 27.0
2015-Apr-30 04:00N 14°01' W 166°31'1 0.1 27.1
2015-Apr-29 16:00N 14°01' W 166°30'0 0.0 26.9
2015-Apr-29 15:00N 14°01' W 166°30'0 0.5 26.9
2015-Apr-29 14:00N 14°02' W 166°30'3 0.5 26.9
2015-Apr-29 08:00N 14°03' W 166°27'2 0.4 26.8
2015-Apr-29 04:00N 14°04' W 166°26'0 0.0 26.7
2015-Apr-29 03:00N 14°04' W 166°26'7 0.7 26.7
2015-Apr-28 17:00N 14°06' W 166°19'2 0.6 26.9
2015-Apr-28 14:00N 14°07' W 166°17'0 0.4 27.0
2015-Apr-28 13:00N 14°07' W 166°17'1 0.2 27.1
2015-Apr-28 09:00N 14°08' W 166°17'1 0.2 27.2
2015-Apr-28 04:00N 14°08' W 166°16'2 0.6 27.3
2015-Apr-28 00:00N 14°06' W 166°18'1 0.2 27.3
2015-Apr-27 19:00N 14°06' W 166°19'1 0.5 27.1
2015-Apr-27 17:00N 14°05' W 166°18'0 0.5 27.1
2015-Apr-27 16:00N 14°04' W 166°18'3 0.4 27.2
2015-Apr-27 09:00N 14°05' W 166°21'1 0.7 27.3
2015-Apr-27 08:00N 14°06' W 166°21'2 0.4 27.3
2015-Apr-27 03:00N 14°08' W 166°21'1 0.6 27.5
2015-Apr-27 02:00N 14°09' W 166°21'3 1.3 27.5
2015-Apr-27 00:00N 14°11' W 166°22'0 0.0 27.4
2015-Apr-26 21:00N 14°11' W 166°22'4 0.8 27.1
2015-Apr-26 16:00N 14°15' W 166°20'2 0.8 26.6
2015-Apr-26 13:00N 14°16' W 166°18'0 0.0 26.4
2015-Apr-26 12:00N 14°16' W 166°18'   26.4
Track history (hours):
 
Tides and Currents Weather Stations Pressure Air Temp Water Temp Dewpoint Dewpoint Depression Visibility Wind Speed Wind Dir Waves Ship Positions

Drifting buoy 43528

Last reported at 2015-May-06 05:00 UTC. Time now 2015-May-06 06:25 UTC.
Position N 13°54' W 166°39'.

Water temperature 27.2 ° C

Date/timePositionNaut miles runAvg speedWind from/ knotsBaromVisibWave heightAir tempDewpointWater temp
2015-May-06 05:00N 13°54' W 166°39'0 0.2 27.2
2015-May-06 04:00N 13°54' W 166°39'0 0.2 27.3
2015-May-06 02:00N 13°54' W 166°39'0 0.0 27.3
2015-May-06 01:00N 13°54' W 166°39'0 0.4 27.3
2015-May-06 00:00N 13°54' W 166°38'0 0.0 27.3
2015-May-05 21:00N 13°54' W 166°38'1 0.7 27.2
2015-May-05 20:00N 13°54' W 166°38'0 0.0 27.2
2015-May-05 19:00N 13°54' W 166°38'1 0.6 27.2
2015-May-05 17:00N 13°54' W 166°39'0 0.1 27.2
2015-May-05 16:00N 13°54' W 166°39'1 0.3 27.2
2015-May-05 14:00N 13°54' W 166°38'1 0.8 27.2
2015-May-05 13:00N 13°54' W 166°39'0 0.2 27.2
2015-May-05 12:00N 13°53' W 166°39'0 0.0 27.2
2015-May-05 08:00N 13°53' W 166°39'1 1.3 27.2
2015-May-05 07:00N 13°52' W 166°40'0 0.1 27.2
2015-May-05 05:00N 13°52' W 166°40'0 0.3 27.2
2015-May-05 04:00N 13°52' W 166°40'1 1.5 27.2
2015-May-05 03:00N 13°51' W 166°39'0 0.0 27.2
2015-May-05 02:00N 13°51' W 166°39'1 0.8 27.3
2015-May-05 01:00N 13°50' W 166°38'1 1.2 27.2
2015-May-05 00:00N 13°50' W 166°37'2 1.8 27.2
2015-May-04 23:00N 13°50' W 166°39'2 1.1 27.2
2015-May-04 21:00N 13°49' W 166°37'1 1.1 27.2
2015-May-04 20:00N 13°48' W 166°37'1 1.4 27.2
2015-May-04 19:00N 13°50' W 166°37'2 0.9 27.2
2015-May-04 17:00N 13°48' W 166°37'0 0.3 27.2
2015-May-04 16:00N 13°48' W 166°37'1 0.4 27.2
2015-May-04 13:00N 13°48' W 166°35'0 0.1 27.2
2015-May-04 09:00N 13°48' W 166°35'1 0.8 27.2
2015-May-04 08:00N 13°48' W 166°34'2 0.4 27.2
2015-May-04 04:00N 13°47' W 166°36'0 0.2 27.3
2015-May-04 03:00N 13°47' W 166°36'1 0.5 27.3
2015-May-04 00:00N 13°46' W 166°35'1 0.1 27.3
2015-May-03 16:00N 13°46' W 166°35'1 0.1 27.2
2015-May-03 08:00N 13°46' W 166°34'2 0.2 27.2
2015-May-02 19:00N 13°48' W 166°33'2 0.2 27.2
2015-May-02 09:00N 13°50' W 166°32'1 0.8 27.2
2015-May-02 08:00N 13°51' W 166°32'1 0.0 27.2
2015-May-01 21:00N 13°50' W 166°33'1 0.1 27.1
2015-May-01 09:00N 13°51' W 166°31'1 0.8 27.1
2015-May-01 08:00N 13°51' W 166°31'1 0.2 27.1
2015-May-01 05:00N 13°51' W 166°30'1 0.7 27.2
2015-May-01 04:00N 13°52' W 166°30'0 0.4 27.2
2015-May-01 03:00N 13°52' W 166°30'3 0.4 27.2
2015-Apr-30 19:00N 13°54' W 166°29'1 0.5 27.1
2015-Apr-30 17:00N 13°55' W 166°30'0 0.2 27.0
2015-Apr-30 15:00N 13°56' W 166°30'1 0.5 27.1
2015-Apr-30 12:00N 13°57' W 166°30'0 0.0 27.1
2015-Apr-30 11:00N 13°57' W 166°30'2 0.6 27.0
2015-Apr-30 08:00N 13°59' W 166°30'1 1.1 27.0
2015-Apr-30 07:00N 13°60' W 166°31'1 0.2 27.0
2015-Apr-30 04:00N 14°01' W 166°31'1 0.1 27.1
2015-Apr-29 16:00N 14°01' W 166°30'0 0.0 26.9
2015-Apr-29 15:00N 14°01' W 166°30'0 0.5 26.9
2015-Apr-29 14:00N 14°02' W 166°30'3 0.5 26.9
2015-Apr-29 08:00N 14°03' W 166°27'2 0.4 26.8
2015-Apr-29 04:00N 14°04' W 166°26'0 0.0 26.7
2015-Apr-29 03:00N 14°04' W 166°26'7 0.7 26.7
2015-Apr-28 17:00N 14°06' W 166°19'2 0.6 26.9
2015-Apr-28 14:00N 14°07' W 166°17'0 0.4 27.0
2015-Apr-28 13:00N 14°07' W 166°17'1 0.2 27.1
2015-Apr-28 09:00N 14°08' W 166°17'1 0.2 27.2
2015-Apr-28 04:00N 14°08' W 166°16'2 0.6 27.3
2015-Apr-28 00:00N 14°06' W 166°18'1 0.2 27.3
2015-Apr-27 19:00N 14°06' W 166°19'1 0.5 27.1
2015-Apr-27 17:00N 14°05' W 166°18'0 0.5 27.1
2015-Apr-27 16:00N 14°04' W 166°18'3 0.4 27.2
2015-Apr-27 09:00N 14°05' W 166°21'1 0.7 27.3
2015-Apr-27 08:00N 14°06' W 166°21'2 0.4 27.3
2015-Apr-27 03:00N 14°08' W 166°21'1 0.6 27.5
2015-Apr-27 02:00N 14°09' W 166°21'3 1.3 27.5
2015-Apr-27 00:00N 14°11' W 166°22'0 0.0 27.4
2015-Apr-26 21:00N 14°11' W 166°22'4 0.8 27.1
2015-Apr-26 16:00N 14°15' W 166°20'2 0.8 26.6
2015-Apr-26 13:00N 14°16' W 166°18'0 0.0 26.4
2015-Apr-26 12:00N 14°16' W 166°18'   26.4

Dump ship's entire track history